Time;durP1;ratioP1;P1;durP2;ratioP2;P2;SDS_P1;SDS_P2;PMS_P1;PMS_P2;Temp;Humidity;BMP_temperature;BMP_pressure;BME280_temperature;BME280_humidity;BME280_pressure;Samples;Min_cycle;Max_cycle;Signal;HPM_P1;HPM_P2
2024/03/04 00:01:47;;;;;;;17.45;9.90;;;;;8.70;97293.00;;;;4858330;29;20137;-66
2024/03/04 00:04:14;;;;;;;14.95;10.07;;;;;8.70;97292.00;;;;4844191;29;20129;-66
2024/03/04 00:06:41;;;;;;;13.93;9.75;;;;;8.60;97299.00;;;;4858467;29;20072;-66
2024/03/04 00:09:08;;;;;;;12.10;10.02;;;;;8.40;97309.00;;;;4843810;29;20048;-66
2024/03/04 00:11:36;;;;;;;16.60;10.48;;;;;8.30;97311.00;;;;4843657;29;20403;-66
2024/03/04 00:14:03;;;;;;;14.02;8.98;;;;;8.20;97318.00;;;;4843625;29;20110;-66
2024/03/04 00:16:29;;;;;;;14.93;9.68;;;;;8.10;97324.00;;;;4843650;29;20042;-66
2024/03/04 00:18:57;;;;;;;12.85;8.52;;;;;8.20;97338.00;;;;4857637;29;20089;-66
2024/03/04 00:21:24;;;;;;;11.25;7.90;;;;;8.20;97350.00;;;;4843523;29;20057;-66
2024/03/04 00:23:51;;;;;;;15.68;9.55;;;;;8.20;97354.00;;;;4843653;29;20384;-66
2024/03/04 00:26:17;;;;;;;18.25;8.15;;;;;8.20;97350.00;;;;4842985;29;20077;-66
2024/03/04 00:28:44;;;;;;;11.18;8.07;;;;;8.20;97354.00;;;;4843362;29;20459;-66
2024/03/04 00:31:12;;;;;;;13.38;9.20;;;;;8.20;97362.00;;;;4843606;29;20049;-66
2024/03/04 00:33:39;;;;;;;14.65;8.85;;;;;8.20;97359.00;;;;4843278;29;20543;-66
2024/03/04 00:36:06;;;;;;;12.65;9.30;;;;;8.20;97363.00;;;;4857551;29;20052;-66
2024/03/04 00:38:33;;;;;;;14.32;8.65;;;;;8.30;97365.00;;;;4826959;29;20058;-66
2024/03/04 00:40:59;;;;;;;13.85;8.95;;;;;8.40;97369.00;;;;4842039;29;20050;-67
2024/03/04 00:43:28;;;;;;;13.07;8.88;;;;;8.40;97379.00;;;;4857353;29;20085;-67
2024/03/04 00:45:54;;;;;;;12.23;9.85;;;;;8.50;97379.00;;;;4843037;29;20049;-67
2024/03/04 00:48:21;;;;;;;14.35;9.50;;;;;8.50;97381.00;;;;4857149;29;20081;-67
2024/03/04 00:50:49;;;;;;;15.48;9.63;;;;;8.40;97391.00;;;;4843268;29;20042;-67
2024/03/04 00:53:16;;;;;;;15.35;9.43;;;;;8.40;97398.00;;;;4857528;29;20049;-67
2024/03/04 00:55:42;;;;;;;14.45;10.27;;;;;8.40;97403.00;;;;4857081;29;20053;-67
2024/03/04 00:58:09;;;;;;;13.00;10.00;;;;;8.30;97406.00;;;;4843136;29;20128;-67
2024/03/04 01:00:37;;;;;;;16.30;10.65;;;;;8.20;97412.00;;;;4856939;29;20201;-67
2024/03/04 01:03:04;;;;;;;13.18;10.10;;;;;8.20;97407.00;;;;4843241;29;20114;-69
2024/03/04 01:05:31;;;;;;;16.27;11.02;;;;;8.20;97409.00;;;;4856953;29;20042;-67
2024/03/04 01:07:57;;;;;;;20.25;11.85;;;;;8.20;97409.00;;;;4856858;29;20111;-68
2024/03/04 01:10:24;;;;;;;19.95;11.02;;;;;8.20;97407.00;;;;4856818;29;20054;-68
2024/03/04 01:12:50;;;;;;;18.45;10.40;;;;;8.20;97408.00;;;;4856864;29;20061;-69
2024/03/04 01:15:17;;;;;;;15.10;10.38;;;;;8.20;97413.00;;;;4841488;29;20496;-66
2024/03/04 01:17:46;;;;;;;14.98;10.68;;;;;8.20;97422.00;;;;4842616;29;20124;-66
2024/03/04 01:20:14;;;;;;;15.32;11.10;;;;;8.20;97429.00;;;;4841330;29;20049;-66
2024/03/04 01:22:40;;;;;;;15.75;10.88;;;;;8.20;97430.00;;;;4842524;29;20046;-66
2024/03/04 01:25:09;;;;;;;13.60;10.40;;;;;8.20;97437.00;;;;4842902;29;20400;-67
2024/03/04 01:27:35;;;;;;;16.25;10.00;;;;;8.20;97440.00;;;;4843534;29;20472;-67
2024/03/04 01:30:03;;;;;;;15.27;10.65;;;;;8.30;97455.00;;;;4856618;29;20050;-66
2024/03/04 01:32:30;;;;;;;15.52;10.85;;;;;8.40;97451.00;;;;4842694;29;20046;-66
2024/03/04 01:34:56;;;;;;;16.92;11.38;;;;;8.30;97450.00;;;;4856487;29;20144;-66
2024/03/04 01:37:23;;;;;;;15.05;10.80;;;;;8.30;97452.00;;;;4842342;29;20074;-66
2024/03/04 01:39:49;;;;;;;17.27;10.50;;;;;8.20;97454.00;;;;4841220;29;20068;-68
2024/03/04 01:42:17;;;;;;;18.23;10.57;;;;;8.20;97457.00;;;;4842737;29;20514;-68
2024/03/04 01:44:43;;;;;;;15.50;10.85;;;;;8.20;97455.00;;;;4842580;29;20069;-68
2024/03/04 01:47:17;;;;;;;17.70;11.35;;;;;8.20;97456.00;;;;4842465;29;20488;-68
2024/03/04 01:49:44;;;;;;;15.65;10.75;;;;;8.20;97464.00;;;;4841191;29;20133;-68
2024/03/04 01:52:11;;;;;;;15.48;10.45;;;;;8.30;97470.00;;;;4842328;29;20054;-68
2024/03/04 01:54:40;;;;;;;19.63;11.32;;;;;8.40;97469.00;;;;4856363;29;20535;-69
2024/03/04 01:57:11;;;;;;;15.40;10.93;;;;;8.40;97466.00;;;;4856220;29;20054;-68
2024/03/04 01:59:38;;;;;;;14.00;10.70;;;;;8.50;97483.00;;;;4842286;29;20488;-69
2024/03/04 02:02:08;;;;;;;16.77;11.00;;;;;8.50;97481.00;;;;4842723;29;20041;-68
2024/03/04 02:04:35;;;;;;;17.80;11.80;;;;;8.60;97481.00;;;;4857334;29;20407;-68
2024/03/04 02:07:02;;;;;;;17.77;12.00;;;;;8.70;97490.00;;;;4843958;29;20445;-68
2024/03/04 02:09:30;;;;;;;18.17;11.07;;;;;8.70;97489.00;;;;4857435;29;20145;-68
2024/03/04 02:11:58;;;;;;;16.95;11.50;;;;;8.70;97495.00;;;;4841588;29;20058;-66
2024/03/04 02:14:25;;;;;;;18.33;12.05;;;;;8.70;97499.00;;;;4842959;29;20518;-66
2024/03/04 02:16:51;;;;;;;14.77;11.02;;;;;8.70;97511.00;;;;4845753;29;20046;-66
2024/03/04 02:19:19;;;;;;;15.75;10.77;;;;;8.80;97518.00;;;;4845791;29;20049;-66
2024/03/04 02:21:51;;;;;;;18.02;12.05;;;;;8.80;97524.00;;;;4859871;29;20086;-66
2024/03/04 02:24:19;;;;;;;16.27;11.07;;;;;8.90;97516.00;;;;4845786;29;20058;-66
2024/03/04 02:26:46;;;;;;;16.33;11.20;;;;;8.90;97523.00;;;;4860505;29;20046;-66
2024/03/04 02:29:13;;;;;;;15.95;10.90;;;;;9.00;97520.00;;;;4846143;29;20049;-66
2024/03/04 02:31:40;;;;;;;14.25;10.35;;;;;8.90;97531.00;;;;4845468;29;20049;-66
2024/03/04 02:34:09;;;;;;;17.55;11.30;;;;;9.00;97521.00;;;;4844805;29;20062;-66
2024/03/04 02:36:38;;;;;;;16.50;11.35;;;;;9.00;97521.00;;;;4859857;29;20461;-66
2024/03/04 02:39:10;;;;;;;18.65;11.98;;;;;9.10;97526.00;;;;4859904;29;20076;-66
2024/03/04 02:41:40;;;;;;;19.17;12.43;;;;;9.00;97534.00;;;;4845790;29;20064;-66
2024/03/04 02:44:07;;;;;;;17.13;11.95;;;;;9.00;97531.00;;;;4859468;29;20054;-65
2024/03/04 02:46:34;;;;;;;18.80;11.98;;;;;9.10;97530.00;;;;4859203;29;20045;-65
2024/03/04 02:49:02;;;;;;;28.92;12.38;;;;;9.10;97528.00;;;;4845339;29;20128;-69
2024/03/04 02:51:30;;;;;;;16.70;12.32;;;;;9.20;97526.00;;;;4845906;29;20054;-69
2024/03/04 02:53:57;;;;;;;17.88;12.43;;;;;9.20;97525.00;;;;4844109;29;20081;-68
2024/03/04 02:56:24;;;;;;;17.70;12.68;;;;;9.20;97520.00;;;;4845298;29;20418;-67
2024/03/04 02:58:50;;;;;;;19.25;12.90;;;;;9.20;97520.00;;;;4829094;29;20056;-67
2024/03/04 03:01:17;;;;;;;19.63;13.25;;;;;9.20;97526.00;;;;4859508;29;20060;-69
2024/03/04 03:03:44;;;;;;;18.15;12.55;;;;;9.30;97525.00;;;;4859329;29;20060;-68
2024/03/04 03:06:11;;;;;;;19.98;13.00;;;;;9.30;97541.00;;;;4859107;29;20064;-67
2024/03/04 03:08:37;;;;;;;16.52;12.02;;;;;9.30;97542.00;;;;4859142;29;20141;-67
2024/03/04 03:11:04;;;;;;;18.25;11.70;;;;;9.30;97554.00;;;;4859419;29;20054;-68
2024/03/04 03:13:31;;;;;;;16.70;11.75;;;;;9.30;97551.00;;;;4859559;29;20110;-68
2024/03/04 03:15:57;;;;;;;18.17;12.13;;;;;9.20;97546.00;;;;4845078;29;20145;-67
2024/03/04 03:18:24;;;;;;;20.35;12.63;;;;;9.20;97555.00;;;;4845471;29;20411;-67
2024/03/04 03:20:51;;;;;;;17.48;13.18;;;;;9.20;97554.00;;;;4859443;29;20042;-68
2024/03/04 03:23:18;;;;;;;16.90;12.23;;;;;9.20;97564.00;;;;4844857;29;20054;-68
2024/03/04 03:25:44;;;;;;;19.55;12.23;;;;;9.30;97561.00;;;;4857890;29;20054;-68
2024/03/04 03:28:11;;;;;;;18.02;11.65;;;;;9.30;97568.00;;;;4858592;29;20568;-67
2024/03/04 03:30:37;;;;;;;18.27;12.60;;;;;9.40;97572.00;;;;4859138;29;20080;-68
2024/03/04 03:33:04;;;;;;;20.42;12.60;;;;;9.40;97558.00;;;;4843330;29;20049;-68
2024/03/04 03:35:31;;;;;;;18.85;11.65;;;;;9.40;97570.00;;;;4844367;29;20050;-68
2024/03/04 03:37:57;;;;;;;18.60;13.07;;;;;9.50;97577.00;;;;4844300;29;20045;-68
2024/03/04 03:40:24;;;;;;;16.73;11.73;;;;;9.50;97572.00;;;;4858383;29;20137;-68
2024/03/04 03:42:51;;;;;;;17.98;11.98;;;;;9.50;97587.00;;;;4844619;29;20058;-67
2024/03/04 03:45:18;;;;;;;21.27;12.27;;;;;9.60;97594.00;;;;4858250;29;20141;-67
2024/03/04 03:47:44;;;;;;;17.45;12.20;;;;;9.60;97583.00;;;;4842948;29;20102;-68
2024/03/04 03:50:11;;;;;;;19.42;11.95;;;;;9.60;97593.00;;;;4844792;29;20042;-68
2024/03/04 03:52:37;;;;;;;18.50;12.48;;;;;9.60;97589.00;;;;4844526;29;20392;-68
2024/03/04 03:55:04;;;;;;;17.70;12.43;;;;;9.50;97589.00;;;;4843089;29;20073;-67
2024/03/04 03:57:31;;;;;;;19.25;12.30;;;;;9.50;97588.00;;;;4843192;29;20042;-69
2024/03/04 04:00:17;;;;;;;19.90;12.90;;;;;9.50;97591.00;;;;4844418;29;20053;-67
2024/03/04 04:02:44;;;;;;;21.60;12.60;;;;;9.40;97597.00;;;;4844471;29;20046;-67
2024/03/04 04:05:10;;;;;;;20.70;13.45;;;;;9.40;97595.00;;;;4844393;29;20498;-67
2024/03/04 04:07:37;;;;;;;18.60;13.25;;;;;9.40;97608.00;;;;4842974;29;20056;-67
2024/03/04 04:10:04;;;;;;;20.80;14.13;;;;;9.50;97615.00;;;;4843894;29;20095;-68
2024/03/04 04:12:30;;;;;;;24.33;13.48;;;;;9.50;97615.00;;;;4858612;29;20050;-68
2024/03/04 04:14:57;;;;;;;19.63;13.43;;;;;9.60;97618.00;;;;4857717;29;20531;-67
2024/03/04 04:17:23;;;;;;;20.27;13.68;;;;;9.60;97611.00;;;;4842396;29;20053;-66
2024/03/04 04:19:50;;;;;;;18.98;13.23;;;;;9.50;97613.00;;;;4857819;29;20042;-66
2024/03/04 04:22:16;;;;;;;18.90;13.65;;;;;9.50;97610.00;;;;4844816;29;20067;-66
2024/03/04 04:24:43;;;;;;;20.35;13.70;;;;;9.60;97619.00;;;;4845052;29;20050;-67
2024/03/04 04:27:10;;;;;;;19.33;13.40;;;;;9.60;97615.00;;;;4842845;29;20414;-66
2024/03/04 04:29:36;;;;;;;22.50;13.48;;;;;9.60;97622.00;;;;4843897;29;20419;-66
2024/03/04 04:32:03;;;;;;;21.15;14.57;;;;;9.60;97624.00;;;;4858005;29;20109;-66
2024/03/04 04:34:30;;;;;;;18.45;13.77;;;;;9.60;97628.00;;;;4843045;29;20046;-66
2024/03/04 04:36:58;;;;;;;23.50;14.15;;;;;9.60;97628.00;;;;4843038;29;20046;-66
2024/03/04 04:39:25;;;;;;;18.48;13.43;;;;;9.70;97628.00;;;;4842202;29;20057;-66
2024/03/04 04:41:51;;;;;;;20.33;13.23;;;;;9.70;97626.00;;;;4842044;29;20050;-66
2024/03/04 04:44:19;;;;;;;20.02;12.80;;;;;9.70;97623.00;;;;4843446;29;20133;-66
2024/03/04 04:46:45;;;;;;;18.95;13.52;;;;;9.70;97626.00;;;;4857473;29;20491;-67
2024/03/04 04:49:12;;;;;;;21.30;13.55;;;;;9.70;97635.00;;;;4843123;29;20106;-66
2024/03/04 04:51:41;;;;;;;22.55;12.63;;;;;9.60;97641.00;;;;4843130;29;20084;-67
2024/03/04 04:54:08;;;;;;;21.33;14.32;;;;;9.50;97642.00;;;;4843317;29;20077;-67
2024/03/04 04:56:34;;;;;;;18.92;13.07;;;;;9.50;97648.00;;;;4856987;29;20046;-66
2024/03/04 04:59:01;;;;;;;18.83;12.82;;;;;9.50;97649.00;;;;4857106;29;20054;-67
2024/03/04 05:01:28;;;;;;;23.55;14.98;;;;;9.50;97655.00;;;;4842900;29;20050;-67
2024/03/04 05:03:55;;;;;;;21.35;13.85;;;;;9.50;97654.00;;;;4843087;29;20133;-67
2024/03/04 05:06:25;;;;;;;19.98;13.98;;;;;9.50;97657.00;;;;4841492;29;20050;-67
2024/03/04 05:08:52;;;;;;;18.27;13.02;;;;;9.50;97664.00;;;;4843232;29;20392;-66
2024/03/04 05:11:20;;;;;;;19.95;12.75;;;;;9.60;97664.00;;;;4842865;29;20408;-67
2024/03/04 05:13:48;;;;;;;18.98;14.48;;;;;9.70;97676.00;;;;4842377;29;20352;-67
2024/03/04 05:16:15;;;;;;;21.65;13.45;;;;;9.70;97674.00;;;;4857121;29;20489;-67
2024/03/04 05:18:41;;;;;;;19.98;13.98;;;;;9.70;97679.00;;;;4842816;29;20098;-66
2024/03/04 05:21:09;;;;;;;21.05;13.77;;;;;9.70;97684.00;;;;4842730;29;20049;-67
2024/03/04 05:23:35;;;;;;;20.27;14.05;;;;;9.70;97680.00;;;;4856823;29;20472;-67
2024/03/04 05:26:02;;;;;;;21.83;13.52;;;;;9.70;97690.00;;;;4842468;29;20054;-67
2024/03/04 05:28:29;;;;;;;20.02;13.55;;;;;9.70;97684.00;;;;4826598;29;20138;-67
2024/03/04 05:30:57;;;;;;;21.45;14.63;;;;;9.70;97693.00;;;;4843051;29;20060;-66
2024/03/04 05:33:23;;;;;;;20.33;13.52;;;;;9.70;97691.00;;;;4842956;29;20056;-66
2024/03/04 05:35:50;;;;;;;22.20;14.00;;;;;9.70;97698.00;;;;4841246;29;20057;-66
2024/03/04 05:38:16;;;;;;;22.20;14.93;;;;;9.80;97702.00;;;;4842795;29;20042;-66
2024/03/04 05:40:44;;;;;;;22.55;14.90;;;;;9.80;97704.00;;;;4841273;29;20054;-66
2024/03/04 05:43:10;;;;;;;22.58;15.10;;;;;9.90;97705.00;;;;4841885;29;20460;-67
2024/03/04 05:45:37;;;;;;;24.65;14.68;;;;;9.90;97709.00;;;;4841610;29;20053;-67
2024/03/04 05:48:05;;;;;;;20.58;14.95;;;;;9.90;97720.00;;;;4857374;29;20054;-66
2024/03/04 05:50:32;;;;;;;20.60;14.82;;;;;9.90;97722.00;;;;4843958;29;20534;-66
2024/03/04 05:53:01;;;;;;;24.55;15.40;;;;;9.90;97720.00;;;;4846617;29;20057;-66
2024/03/04 05:55:28;;;;;;;22.40;15.43;;;;;9.90;97726.00;;;;4846199;29;20073;-67
2024/03/04 05:57:55;;;;;;;25.08;15.95;;;;;9.90;97739.00;;;;4829827;29;20054;-67
2024/03/04 06:00:21;;;;;;;30.10;18.95;;;;;10.00;97739.00;;;;4845962;29;20392;-69
2024/03/04 06:02:48;;;;;;;26.58;17.50;;;;;10.00;97751.00;;;;4846591;29;20514;-68
2024/03/04 06:05:14;;;;;;;30.42;19.35;;;;;10.10;97745.00;;;;4846363;29;20069;-67
2024/03/04 06:07:41;;;;;;;32.55;19.83;;;;;10.10;97748.00;;;;4844784;29;20106;-67
2024/03/04 06:10:09;;;;;;;28.95;18.77;;;;;10.20;97750.00;;;;4861094;29;20086;-68
2024/03/04 06:12:36;;;;;;;30.63;18.40;;;;;10.20;97756.00;;;;4846127;29;20410;-68
2024/03/04 06:15:03;;;;;;;32.40;19.88;;;;;10.20;97753.00;;;;4845972;29;20046;-68
2024/03/04 06:17:29;;;;;;;31.90;19.25;;;;;10.20;97758.00;;;;4860429;29;20081;-68
2024/03/04 06:19:56;;;;;;;31.65;18.83;;;;;10.20;97770.00;;;;4846221;29;20082;-68
2024/03/04 06:22:23;;;;;;;29.73;19.95;;;;;10.20;97772.00;;;;4844541;29;20427;-68
2024/03/04 06:24:53;;;;;;;40.40;24.77;;;;;10.20;97773.00;;;;4859756;29;20106;-67
2024/03/04 06:27:19;;;;;;;32.20;17.73;;;;;10.20;97776.00;;;;4845351;29;20056;-69
2024/03/04 06:29:46;;;;;;;31.63;18.25;;;;;10.30;97774.00;;;;4844527;29;20144;-67
2024/03/04 06:32:12;;;;;;;27.50;17.15;;;;;10.20;97781.00;;;;4846308;29;20408;-68
2024/03/04 06:34:40;;;;;;;28.40;17.30;;;;;10.20;97783.00;;;;4845764;29;20455;-67
2024/03/04 06:37:07;;;;;;;27.25;17.27;;;;;10.20;97789.00;;;;4844324;29;20079;-66
2024/03/04 06:39:34;;;;;;;26.52;16.73;;;;;10.30;97790.00;;;;4845119;29;20141;-67
2024/03/04 06:42:02;;;;;;;28.38;17.75;;;;;10.30;97790.00;;;;4847896;29;20057;-69
2024/03/04 06:44:29;;;;;;;30.55;20.17;;;;;10.30;97797.00;;;;4847133;29;20080;-67
2024/03/04 06:46:55;;;;;;;32.80;19.85;;;;;10.20;97802.00;;;;4845612;29;20124;-68
2024/03/04 06:49:22;;;;;;;35.78;20.58;;;;;10.30;97802.00;;;;4845930;29;20500;-68
2024/03/04 06:51:49;;;;;;;31.90;20.00;;;;;10.30;97805.00;;;;4844432;29;20050;-69
2024/03/04 06:54:15;;;;;;;30.25;18.45;;;;;10.30;97812.00;;;;4844352;29;20102;-67
2024/03/04 06:56:42;;;;;;;32.88;18.90;;;;;10.40;97812.00;;;;4844911;29;20046;-67
2024/03/04 06:59:08;;;;;;;28.75;18.73;;;;;10.50;97824.00;;;;4859207;29;20054;-68
2024/03/04 07:01:35;;;;;;;41.25;22.92;;;;;10.50;97826.00;;;;4845252;29;20115;-68
2024/03/04 07:04:02;;;;;;;38.47;22.25;;;;;10.60;97835.00;;;;4845212;29;20056;-68
2024/03/04 07:06:29;;;;;;;34.38;20.60;;;;;10.50;97822.00;;;;4845054;29;20057;-67
2024/03/04 07:08:57;;;;;;;33.58;20.23;;;;;10.60;97826.00;;;;4844755;29;20060;-67
2024/03/04 07:11:24;;;;;;;33.65;20.27;;;;;10.60;97831.00;;;;4844885;29;20077;-69
2024/03/04 07:13:51;;;;;;;33.83;19.33;;;;;10.60;97828.00;;;;4844799;29;20084;-68
2024/03/04 07:16:18;;;;;;;32.03;19.38;;;;;10.60;97830.00;;;;4844847;29;20110;-68
2024/03/04 07:18:44;;;;;;;31.77;19.10;;;;;10.60;97831.00;;;;4844893;29;20121;-68
2024/03/04 07:21:15;;;;;;;32.58;19.95;;;;;10.70;97836.00;;;;4843703;29;20057;-68
2024/03/04 07:23:42;;;;;;;30.55;19.38;;;;;10.70;97833.00;;;;4844704;29;20480;-67
2024/03/04 07:26:10;;;;;;;34.15;19.27;;;;;10.70;97840.00;;;;4858451;29;20065;-67
2024/03/04 07:28:40;;;;;;;35.25;20.60;;;;;10.80;97843.00;;;;4858564;29;20148;-68
2024/03/04 07:31:08;;;;;;;32.10;20.20;;;;;10.80;97847.00;;;;4858731;29;20073;-69
2024/03/04 07:33:34;;;;;;;33.53;18.42;;;;;10.80;97848.00;;;;4844860;29;20120;-69
2024/03/04 07:36:02;;;;;;;34.70;21.42;;;;;10.80;97840.00;;;;4844302;29;20478;-69
2024/03/04 07:38:28;;;;;;;35.15;21.17;;;;;10.70;97843.00;;;;4843280;29;20050;-69
2024/03/04 07:40:55;;;;;;;34.13;21.70;;;;;10.70;97850.00;;;;4858550;29;20499;-69
2024/03/04 07:43:22;;;;;;;41.40;21.88;;;;;10.80;97844.00;;;;4843140;29;20058;-68
2024/03/04 07:45:48;;;;;;;36.20;21.45;;;;;10.90;97856.00;;;;4844391;29;20566;-69
2024/03/04 07:48:15;;;;;;;36.47;22.27;;;;;10.90;97847.00;;;;4858345;29;20410;-70
2024/03/04 07:50:42;;;;;;;42.92;22.45;;;;;10.90;97853.00;;;;4858336;29;20153;-70
2024/03/04 07:53:08;;;;;;;47.20;22.27;;;;;11.00;97856.00;;;;4858294;29;20056;-69
2024/03/04 07:55:35;;;;;;;37.90;22.20;;;;;11.00;97862.00;;;;4843844;29;20057;-69
2024/03/04 07:58:02;;;;;;;38.70;22.80;;;;;11.00;97861.00;;;;4844054;29;20102;-68
2024/03/04 08:00:28;;;;;;;41.80;22.85;;;;;11.10;97865.00;;;;4844271;29;20410;-68
2024/03/04 08:02:55;;;;;;;35.78;20.73;;;;;11.10;97860.00;;;;4858249;29;20049;-70
2024/03/04 08:05:22;;;;;;;44.70;25.30;;;;;11.10;97862.00;;;;4843163;29;20060;-69
2024/03/04 08:07:48;;;;;;;42.85;22.15;;;;;11.10;97859.00;;;;4844137;29;20049;-69
2024/03/04 08:10:16;;;;;;;37.53;22.40;;;;;11.10;97867.00;;;;4844183;29;20126;-69
2024/03/04 08:12:43;;;;;;;41.28;22.95;;;;;11.10;97880.00;;;;4842402;29;20057;-69
2024/03/04 08:15:10;;;;;;;37.92;22.65;;;;;11.10;97880.00;;;;4843902;29;20081;-69
2024/03/04 08:17:36;;;;;;;40.42;23.35;;;;;11.00;97880.00;;;;4857862;29;20078;-69
2024/03/04 08:20:14;;;;;;;37.47;21.35;;;;;11.10;97895.00;;;;4844309;29;20054;-69
2024/03/04 08:22:53;;;;;;;42.85;22.70;;;;;11.10;97889.00;;;;4843577;29;20073;-69
2024/03/04 08:25:24;;;;;;;40.17;22.25;;;;;11.10;97891.00;;;;4870222;23;20053;-63
2024/03/04 08:27:51;;;;;;;38.65;22.70;;;;;11.20;97888.00;;;;4862482;29;20073;-63
2024/03/04 08:30:17;;;;;;;40.67;23.20;;;;;11.30;97896.00;;;;4845421;29;20057;-63
2024/03/04 08:32:44;;;;;;;44.70;23.60;;;;;11.30;97901.00;;;;4862221;29;20120;-63
2024/03/04 08:35:12;;;;;;;44.22;23.27;;;;;11.30;97893.00;;;;4860893;29;20049;-64
2024/03/04 08:37:39;;;;;;;42.38;24.42;;;;;11.30;97896.00;;;;4861236;29;20562;-64
2024/03/04 08:40:07;;;;;;;41.35;22.92;;;;;11.30;97894.00;;;;4861208;29;20509;-64
2024/03/04 08:42:41;;;;;;;39.47;22.27;;;;;11.40;97892.00;;;;4860784;29;20506;-64
2024/03/04 08:45:08;;;;;;;44.85;24.80;;;;;11.50;97902.00;;;;4862107;29;20049;-63
2024/03/04 08:47:35;;;;;;;47.03;24.42;;;;;11.50;97899.00;;;;4861564;29;20073;-63
2024/03/04 08:50:03;;;;;;;46.42;25.25;;;;;11.50;97892.00;;;;4860463;29;20046;-64
2024/03/04 08:52:30;;;;;;;44.22;24.40;;;;;11.50;97900.00;;;;4861656;29;20049;-63
2024/03/04 08:54:56;;;;;;;38.75;23.13;;;;;11.50;97910.00;;;;4860315;29;20215;-63
2024/03/04 08:57:23;;;;;;;43.80;24.70;;;;;11.50;97911.00;;;;4860371;29;20102;-63
2024/03/04 08:59:50;;;;;;;43.65;24.02;;;;;11.50;97907.00;;;;4860242;29;20518;-63
2024/03/04 09:02:17;;;;;;;45.58;23.90;;;;;11.50;97917.00;;;;4861510;29;20481;-63
2024/03/04 09:04:47;;;;;;;44.05;24.30;;;;;11.60;97910.00;;;;4860144;29;20076;-63
2024/03/04 09:07:14;;;;;;;44.50;24.35;;;;;11.70;97915.00;;;;4875446;29;20056;-63
2024/03/04 09:09:42;;;;;;;46.70;24.42;;;;;11.70;97914.00;;;;4861585;29;20443;-63
2024/03/04 09:12:08;;;;;;;42.30;23.52;;;;;11.60;97910.00;;;;4859961;29;20060;-63
2024/03/04 09:14:35;;;;;;;38.53;23.55;;;;;11.60;97912.00;;;;4860185;29;20057;-63
2024/03/04 09:17:01;;;;;;;38.80;22.08;;;;;11.60;97917.00;;;;4860218;29;20069;-63
2024/03/04 09:19:28;;;;;;;42.70;24.25;;;;;11.70;97914.00;;;;4861294;29;20479;-63
2024/03/04 09:21:55;;;;;;;40.92;23.90;;;;;11.60;97918.00;;;;4859787;29;20070;-63
2024/03/04 09:24:21;;;;;;;39.72;23.02;;;;;11.70;97917.00;;;;4874893;29;20506;-63
2024/03/04 09:26:48;;;;;;;41.10;22.40;;;;;11.70;97910.00;;;;4861163;29;20053;-63
2024/03/04 09:29:14;;;;;;;43.50;24.00;;;;;11.70;97919.00;;;;4875116;29;20045;-64
2024/03/04 09:31:42;;;;;;;43.97;24.23;;;;;11.60;97921.00;;;;4859769;29;20409;-63
2024/03/04 09:34:08;;;;;;;48.17;24.65;;;;;11.60;97927.00;;;;4861096;29;20056;-62
2024/03/04 09:36:35;;;;;;;44.88;22.55;;;;;11.60;97922.00;;;;4861120;29;20045;-63
2024/03/04 09:39:05;;;;;;;40.80;23.52;;;;;11.70;97929.00;;;;4860807;29;20468;-63
2024/03/04 09:41:36;;;;;;;42.00;23.08;;;;;11.80;97928.00;;;;4859782;29;20110;-63
2024/03/04 09:44:05;;;;;;;40.33;22.85;;;;;11.70;97930.00;;;;4859573;29;20106;-67
2024/03/04 09:46:36;;;;;;;40.40;23.10;;;;;11.60;97929.00;;;;4861149;29;20046;-67
2024/03/04 09:49:03;;;;;;;42.95;23.45;;;;;11.50;97926.00;;;;4861008;29;20055;-67
2024/03/04 09:51:31;;;;;;;40.63;22.73;;;;;11.40;97920.00;;;;4859453;29;20053;-66
2024/03/04 09:53:58;;;;;;;37.38;22.10;;;;;11.50;97925.00;;;;4859441;29;20041;-65
2024/03/04 09:56:26;;;;;;;41.30;21.83;;;;;11.50;97927.00;;;;4859409;29;20510;-66
2024/03/04 09:58:54;;;;;;;39.40;21.10;;;;;11.60;97934.00;;;;4860932;29;20045;-66
2024/03/04 10:01:20;;;;;;;41.75;22.63;;;;;11.60;97937.00;;;;4859737;29;20574;-66
2024/03/04 10:03:48;;;;;;;42.22;22.52;;;;;11.60;97938.00;;;;4860826;29;20064;-66
2024/03/04 10:06:16;;;;;;;39.38;22.40;;;;;11.60;97942.00;;;;4860805;29;20060;-66
2024/03/04 10:08:43;;;;;;;37.83;22.95;;;;;11.60;97946.00;;;;4860621;29;20075;-66
2024/03/04 10:11:09;;;;;;;38.00;21.13;;;;;11.60;97955.00;;;;4859410;29;20052;-66
2024/03/04 10:13:36;;;;;;;37.88;21.63;;;;;11.60;97950.00;;;;4860479;29;20078;-65
2024/03/04 10:16:07;;;;;;;38.53;21.80;;;;;11.60;97944.00;;;;4844015;29;20054;-66
2024/03/04 10:18:34;;;;;;;40.92;21.95;;;;;11.60;97950.00;;;;4874834;29;20422;-67
2024/03/04 10:21:00;;;;;;;38.85;21.45;;;;;11.60;97948.00;;;;4861406;29;20058;-67
2024/03/04 10:23:27;;;;;;;40.42;21.52;;;;;11.60;97950.00;;;;4860862;29;20046;-66
2024/03/04 10:26:20;;;;;;;35.92;20.58;;;;;11.80;97959.00;;;;4875003;29;20054;-66
2024/03/04 10:28:47;;;;;;;34.30;20.42;;;;;11.80;97947.00;;;;4858541;29;20132;-66
2024/03/04 10:31:18;;;;;;;32.55;18.95;;;;;11.80;97953.00;;;;4859114;29;20092;-66
2024/03/04 10:33:45;;;;;;;37.05;22.25;;;;;11.80;97955.00;;;;4858937;29;20053;-66
2024/03/04 10:36:20;;;;;;;37.78;21.05;;;;;11.90;97959.00;;;;4862239;29;20146;-67
2024/03/04 10:38:47;;;;;;;35.95;20.58;;;;;11.80;97955.00;;;;4863785;29;20451;-66
2024/03/04 10:41:15;;;;;;;35.03;18.83;;;;;11.80;97953.00;;;;4862567;29;20071;-66
2024/03/04 10:43:43;;;;;;;35.15;19.80;;;;;11.80;97958.00;;;;4862906;29;20088;-66
2024/03/04 10:46:11;;;;;;;34.28;19.05;;;;;11.90;97961.00;;;;4863632;29;20053;-66
2024/03/04 10:48:39;;;;;;;37.67;20.77;;;;;12.00;97963.00;;;;4863671;29;20046;-66
2024/03/04 10:51:06;;;;;;;32.00;18.73;;;;;12.10;97955.00;;;;4862273;29;20100;-66
2024/03/04 10:53:34;;;;;;;33.35;18.75;;;;;12.10;97953.00;;;;4863250;29;20101;-65
2024/03/04 10:56:05;;;;;;;32.22;18.77;;;;;12.00;97957.00;;;;4863344;29;20498;-65
2024/03/04 10:58:33;;;;;;;36.50;18.98;;;;;12.00;97964.00;;;;4863407;29;20045;-65
2024/03/04 11:01:03;;;;;;;32.22;18.90;;;;;12.00;97964.00;;;;4877694;29;20527;-66
2024/03/04 11:03:30;;;;;;;31.38;17.90;;;;;12.00;97964.00;;;;4863508;29;20049;-65
2024/03/04 11:05:59;;;;;;;37.20;20.27;;;;;12.10;97965.00;;;;4863325;29;20050;-65
2024/03/04 11:08:38;;;;;;;35.88;19.83;;;;;12.10;97960.00;;;;4863932;29;20049;-66
2024/03/04 11:11:17;;;;;;;31.85;19.35;;;;;11.90;97962.00;;;;4863751;29;20560;-66
2024/03/04 11:14:03;;;;;;;32.05;18.38;;;;;11.90;97970.00;;;;4863458;29;20098;-65
2024/03/04 11:16:35;;;;;;;37.45;19.13;;;;;12.00;97954.00;;;;4862614;29;20073;-66
2024/03/04 11:19:20;;;;;;;32.50;18.88;;;;;11.90;97961.00;;;;4861861;29;20052;-66
2024/03/04 11:21:47;;;;;;;32.35;18.73;;;;;12.00;97964.00;;;;4862413;29;20053;-68
2024/03/04 11:24:16;;;;;;;37.05;20.17;;;;;12.10;97958.00;;;;4863746;29;20085;-66
2024/03/04 11:26:44;;;;;;;31.50;18.98;;;;;12.20;97958.00;;;;4878553;29;20418;-65
2024/03/04 11:29:11;;;;;;;32.85;19.08;;;;;12.30;97950.00;;;;4862660;29;20057;-67
2024/03/04 11:31:38;;;;;;;34.80;19.65;;;;;12.30;97960.00;;;;4881027;29;20132;-66
2024/03/04 11:34:09;;;;;;;35.03;19.95;;;;;12.30;97953.00;;;;4865886;29;20415;-67
2024/03/04 11:36:37;;;;;;;37.90;20.10;;;;;12.30;97959.00;;;;4863509;29;20101;-65
2024/03/04 11:39:13;;;;;;;32.90;19.63;;;;;12.30;97959.00;;;;4862729;29;20049;-66
2024/03/04 11:41:44;;;;;;;35.65;21.45;;;;;12.10;97968.00;;;;4862206;29;20144;-66
2024/03/04 11:44:12;;;;;;;35.35;18.70;;;;;11.90;97961.00;;;;4862313;29;20601;-66
2024/03/04 11:46:43;;;;;;;34.08;19.45;;;;;11.80;97966.00;;;;4862037;29;20400;-66
2024/03/04 11:49:26;;;;;;;32.35;18.52;;;;;11.90;97976.00;;;;4863209;29;20543;-66
2024/03/04 11:52:02;;;;;;;34.15;19.13;;;;;11.80;97969.00;;;;4864818;29;20042;-66
2024/03/04 11:54:32;;;;;;;30.75;18.52;;;;;11.80;97967.00;;;;4848122;29;20088;-65
2024/03/04 11:57:03;;;;;;;41.10;20.63;;;;;12.00;97977.00;;;;4863941;29;20058;-65
2024/03/04 11:59:30;;;;;;;37.33;19.48;;;;;12.00;97974.00;;;;4862252;29;20049;-66
2024/03/04 12:01:57;;;;;;;34.88;18.88;;;;;12.10;97972.00;;;;4876843;29;20509;-66
2024/03/04 12:04:28;;;;;;;40.97;21.17;;;;;12.10;97973.00;;;;4861573;29;20052;-66
2024/03/04 12:06:55;;;;;;;34.58;20.40;;;;;12.10;97975.00;;;;4876913;29;20053;-65